createdAt,value
2022-10-16T00:02:16.596Z,15.59
2022-10-16T00:07:18.383Z,15.51
2022-10-16T00:12:20.150Z,15.66
2022-10-16T00:17:21.787Z,15.84
2022-10-16T00:22:24.131Z,15.88
2022-10-16T00:27:26.222Z,15.74
2022-10-16T00:32:28.270Z,15.66
2022-10-16T00:37:30.339Z,15.68
2022-10-16T00:42:32.139Z,15.80
2022-10-16T00:47:39.921Z,15.96
2022-10-16T00:52:46.991Z,16.11
2022-10-16T00:57:49.311Z,16.18
2022-10-16T01:02:55.843Z,16.30
2022-10-16T01:08:13.261Z,16.39
2022-10-16T01:13:25.053Z,16.45
2022-10-16T01:18:36.525Z,16.45
2022-10-16T01:23:51.472Z,16.42
2022-10-16T01:29:04.660Z,16.39
2022-10-16T01:34:14.971Z,16.39
2022-10-16T01:39:22.722Z,16.31
2022-10-16T01:44:30.287Z,16.21
2022-10-16T01:49:36.397Z,16.09
2022-10-16T01:54:41.320Z,15.95
2022-10-16T01:59:46.999Z,15.98
2022-10-16T02:04:57.966Z,15.96
2022-10-16T02:10:01.992Z,15.69
2022-10-16T02:15:04.501Z,15.41
2022-10-16T02:20:06.833Z,15.27
2022-10-16T02:25:27.815Z,15.32
2022-10-16T02:30:51.911Z,15.37
2022-10-16T02:35:55.437Z,15.35
2022-10-16T02:40:57.557Z,15.37
2022-10-16T02:45:59.231Z,15.41
2022-10-16T02:51:00.995Z,15.43
2022-10-16T02:56:02.720Z,15.41
2022-10-16T03:01:04.591Z,15.43
2022-10-16T03:06:07.081Z,15.40
2022-10-16T03:11:08.957Z,15.45
2022-10-16T03:16:10.940Z,15.55
2022-10-16T03:21:12.660Z,15.58
2022-10-16T03:26:14.609Z,15.57
2022-10-16T03:31:17.370Z,15.43
2022-10-16T03:36:19.093Z,15.34
2022-10-16T03:41:20.829Z,15.41
2022-10-16T03:46:22.474Z,15.36
2022-10-16T03:51:24.388Z,15.37
2022-10-16T03:56:27.367Z,15.41
2022-10-16T04:01:29.033Z,15.54
2022-10-16T04:06:30.711Z,15.58
2022-10-16T04:11:32.395Z,15.60
2022-10-16T04:16:34.102Z,15.58
2022-10-16T04:21:35.881Z,15.58
2022-10-16T04:26:37.887Z,15.57
2022-10-16T04:31:39.521Z,15.60
2022-10-16T04:36:41.367Z,15.65
2022-10-16T04:41:43.103Z,15.68
2022-10-16T04:46:45.391Z,15.72
2022-10-16T04:51:47.014Z,15.73
2022-10-16T04:56:51.316Z,15.78
2022-10-16T05:01:53.166Z,15.84
2022-10-16T05:06:54.812Z,15.69
2022-10-16T05:11:56.606Z,15.72
2022-10-16T05:16:58.358Z,15.77
2022-10-16T05:22:00.047Z,15.71
2022-10-16T05:27:01.884Z,15.71
2022-10-16T05:32:03.934Z,15.81
2022-10-16T05:37:06.187Z,15.80
2022-10-16T05:42:08.000Z,15.71
2022-10-16T05:47:09.763Z,15.62
2022-10-16T05:52:11.476Z,15.56
2022-10-16T05:57:13.146Z,15.54
2022-10-16T06:02:15.422Z,15.55
2022-10-16T06:07:17.164Z,15.58
2022-10-16T06:12:19.471Z,15.55
2022-10-16T06:17:21.448Z,15.52
2022-10-16T06:22:23.347Z,15.54
2022-10-16T06:27:25.345Z,15.61
2022-10-16T06:32:28.529Z,15.74
2022-10-16T06:37:30.289Z,15.87
2022-10-16T06:42:31.918Z,15.99
2022-10-16T06:47:34.720Z,16.10
2022-10-16T06:52:36.369Z,16.18
2022-10-16T06:57:38.252Z,16.26
2022-10-16T07:02:40.200Z,16.31
2022-10-16T07:07:41.846Z,16.37
2022-10-16T07:12:45.994Z,16.44
2022-10-16T07:17:47.693Z,16.51
2022-10-16T07:22:49.367Z,16.57
2022-10-16T07:27:51.188Z,16.59
2022-10-16T07:32:52.957Z,16.65
2022-10-16T07:37:54.639Z,16.71
2022-10-16T07:42:56.559Z,16.76
2022-10-16T07:47:58.222Z,16.81
2022-10-16T07:52:59.913Z,16.90
2022-10-16T07:58:01.663Z,17.01
2022-10-16T08:03:03.543Z,17.11
2022-10-16T08:08:05.297Z,17.29
2022-10-16T08:18:11.863Z,17.54
2022-10-16T08:23:17.562Z,17.64
2022-10-16T08:28:19.363Z,17.77
2022-10-16T08:33:21.045Z,17.93
2022-10-16T08:38:22.795Z,18.10
2022-10-16T08:43:43.904Z,18.24
2022-10-16T08:48:51.578Z,18.35
2022-10-16T08:54:00.138Z,18.53
2022-10-16T08:59:03.027Z,18.67
2022-10-16T09:04:30.060Z,18.86
2022-10-16T09:09:31.805Z,19.05
2022-10-16T09:14:53.913Z,19.21
2022-10-16T09:20:18.967Z,19.40
2022-10-16T09:25:22.798Z,19.60
2022-10-16T09:30:28.847Z,19.80
2022-10-16T09:35:42.802Z,20.00
2022-10-16T09:40:44.613Z,20.13
2022-10-16T09:45:56.958Z,20.37
2022-10-16T09:51:04.816Z,20.60
2022-10-16T09:56:10.440Z,20.70
2022-10-16T10:01:16.554Z,20.82
2022-10-16T10:06:23.696Z,20.97
2022-10-16T10:11:45.604Z,21.11
2022-10-16T10:16:48.487Z,21.22
2022-10-16T10:21:53.141Z,21.30
2022-10-16T10:27:05.673Z,21.40
2022-10-16T10:32:21.865Z,21.46
2022-10-16T10:37:35.915Z,21.48
2022-10-16T10:42:43.719Z,21.65
2022-10-16T10:48:06.850Z,21.79
2022-10-16T10:53:14.558Z,21.76
2022-10-16T10:58:40.832Z,21.86
2022-10-16T11:04:20.089Z,22.02
2022-10-16T11:09:26.849Z,22.22
2022-10-16T11:14:41.649Z,22.35
2022-10-16T11:19:49.063Z,22.40
2022-10-16T11:30:05.691Z,22.74
2022-10-16T11:35:23.489Z,22.97
2022-10-16T11:40:42.039Z,22.98
2022-10-16T11:45:47.632Z,22.84
2022-10-16T11:51:03.520Z,22.82
2022-10-16T11:56:25.661Z,22.73
2022-10-16T12:02:29.596Z,22.72
2022-10-16T12:08:10.186Z,22.90
2022-10-16T12:13:49.206Z,23.01
2022-10-16T12:19:14.872Z,22.93
2022-10-16T12:24:29.226Z,22.90
2022-10-16T12:29:41.428Z,22.93
2022-10-16T12:34:44.383Z,23.05
2022-10-16T12:39:46.967Z,22.95
2022-10-16T12:44:48.645Z,22.92
2022-10-16T12:49:55.474Z,23.00
2022-10-16T12:55:01.983Z,23.09
2022-10-16T13:00:14.677Z,23.12
2022-10-16T13:05:23.096Z,23.20
2022-10-16T13:10:42.310Z,23.57
2022-10-16T13:16:16.544Z,23.89
2022-10-16T13:21:21.927Z,23.98
2022-10-16T13:26:32.588Z,24.09
2022-10-16T13:31:35.200Z,24.12
2022-10-16T13:36:47.393Z,24.37
2022-10-16T13:42:04.812Z,24.31
2022-10-16T13:47:24.157Z,24.29
2022-10-16T13:52:26.297Z,24.44
2022-10-16T13:57:28.116Z,24.41
2022-10-16T14:02:37.707Z,24.33
2022-10-16T14:07:40.128Z,24.34
2022-10-16T14:12:41.746Z,24.34
2022-10-16T14:17:52.587Z,24.28
2022-10-16T14:23:19.222Z,24.22
2022-10-16T14:28:23.480Z,24.15
2022-10-16T14:33:32.117Z,24.23
2022-10-16T14:38:34.555Z,24.15
2022-10-16T14:43:43.450Z,24.20
2022-10-16T14:48:48.699Z,23.99
2022-10-16T14:53:50.728Z,23.73
2022-10-16T14:58:53.402Z,23.50
2022-10-16T15:03:56.099Z,23.08
2022-10-16T15:08:58.212Z,22.69
2022-10-16T15:13:59.903Z,22.27
2022-10-16T15:19:01.753Z,21.91
2022-10-16T15:24:03.893Z,21.71
2022-10-16T15:29:07.143Z,21.50
2022-10-16T15:34:10.293Z,21.16
2022-10-16T15:39:17.162Z,20.71
2022-10-16T15:44:19.017Z,20.25
2022-10-16T15:49:20.880Z,20.01
2022-10-16T15:54:23.729Z,19.86
2022-10-16T15:59:25.469Z,19.81
2022-10-16T16:04:44.270Z,19.73
2022-10-16T16:09:46.456Z,19.58
2022-10-16T16:14:52.169Z,19.33
2022-10-16T16:19:54.114Z,19.09
2022-10-16T16:24:55.807Z,18.89
2022-10-16T16:29:57.555Z,18.69
2022-10-16T16:34:59.210Z,18.56
2022-10-16T16:40:01.516Z,18.52
2022-10-16T16:45:03.464Z,18.43
2022-10-16T16:50:06.082Z,18.44
2022-10-16T16:55:08.208Z,18.45
2022-10-16T17:00:10.470Z,18.46
2022-10-16T17:05:12.169Z,18.42
2022-10-16T17:10:13.827Z,18.46
2022-10-16T17:15:15.731Z,18.30
2022-10-16T17:20:17.620Z,18.17
2022-10-16T17:25:19.252Z,17.99
2022-10-16T17:30:20.894Z,17.90
2022-10-16T17:35:22.580Z,17.91
2022-10-16T17:40:25.986Z,17.87
2022-10-16T17:45:28.017Z,17.94
2022-10-16T17:50:29.914Z,18.04
2022-10-16T17:55:31.603Z,18.09
2022-10-16T18:00:34.189Z,17.99
2022-10-16T18:05:38.391Z,17.83
2022-10-16T18:10:47.577Z,17.60
2022-10-16T18:16:04.416Z,17.64
2022-10-16T18:21:11.143Z,17.53
2022-10-16T18:26:14.670Z,17.52
2022-10-16T18:31:17.612Z,17.40
2022-10-16T18:36:22.472Z,17.32
2022-10-16T18:41:25.093Z,17.32
2022-10-16T18:46:27.278Z,17.27
2022-10-16T18:51:32.601Z,17.14
2022-10-16T18:56:34.587Z,17.07
2022-10-16T19:01:38.688Z,16.98
2022-10-16T19:06:44.924Z,16.82
2022-10-16T19:11:46.994Z,16.69
2022-10-16T19:16:49.336Z,16.64
2022-10-16T19:21:56.233Z,16.65
2022-10-16T19:26:57.901Z,16.66
2022-10-16T19:32:05.066Z,16.72
2022-10-16T19:37:10.966Z,16.68
2022-10-16T19:42:12.606Z,16.59
2022-10-16T19:47:14.664Z,16.66
2022-10-16T19:52:22.011Z,16.74
2022-10-16T19:57:24.724Z,16.81
2022-10-16T20:02:26.753Z,16.96
2022-10-16T20:07:31.299Z,17.01
2022-10-16T20:12:35.665Z,17.08
2022-10-16T20:17:37.298Z,17.06
2022-10-16T20:22:38.918Z,17.11
2022-10-16T20:27:40.603Z,17.17
2022-10-16T20:32:42.386Z,17.25
2022-10-16T20:37:48.811Z,17.29
2022-10-16T20:42:50.514Z,17.38
2022-10-16T20:47:52.335Z,17.41
2022-10-16T20:52:53.963Z,17.36
2022-10-16T20:57:56.054Z,17.25
2022-10-16T21:02:57.698Z,17.04
2022-10-16T21:07:59.409Z,16.84
2022-10-16T21:13:01.313Z,16.79
2022-10-16T21:18:02.958Z,16.73
2022-10-16T21:23:04.687Z,16.61
2022-10-16T21:28:06.388Z,16.76
2022-10-16T21:33:08.059Z,16.83
2022-10-16T21:38:09.742Z,16.88
2022-10-16T21:43:11.393Z,17.02
2022-10-16T21:48:13.081Z,17.27
2022-10-16T21:53:14.736Z,17.45
2022-10-16T21:58:16.429Z,17.54
2022-10-16T22:03:18.623Z,17.55
2022-10-16T22:08:20.645Z,17.53
2022-10-16T22:13:22.327Z,17.40
2022-10-16T22:18:24.086Z,17.22
2022-10-16T22:23:25.875Z,17.16
2022-10-16T22:28:27.677Z,16.94
2022-10-16T22:33:29.949Z,16.87
2022-10-16T22:38:33.315Z,16.77
2022-10-16T22:43:36.782Z,16.65
2022-10-16T22:48:38.636Z,16.52
2022-10-16T22:53:41.179Z,16.41
2022-10-16T22:58:44.023Z,16.34
2022-10-16T23:03:45.984Z,16.15
2022-10-16T23:08:56.089Z,16.04
2022-10-16T23:13:57.896Z,15.72
2022-10-16T23:18:59.731Z,15.75
2022-10-16T23:24:01.496Z,15.75
2022-10-16T23:29:03.586Z,15.76
2022-10-16T23:34:05.347Z,15.50
2022-10-16T23:39:07.044Z,15.56
2022-10-16T23:44:09.225Z,15.56
2022-10-16T23:49:10.897Z,15.41
2022-10-16T23:54:12.646Z,15.38
2022-10-16T23:59:14.707Z,15.29
